sensor_id;sensor_type;location;lat;lon;timestamp;temperature;humidity
14057;DHT22;7103;54.300;10.180;2023-09-12T00:01:29;19.60;28.20
14057;DHT22;7103;54.300;10.180;2023-09-12T00:03:59;19.70;35.50
14057;DHT22;7103;54.300;10.180;2023-09-12T00:06:26;19.70;44.30
14057;DHT22;7103;54.300;10.180;2023-09-12T00:08:53;19.70;65.70
14057;DHT22;7103;54.300;10.180;2023-09-12T00:11:20;19.70;71.90
14057;DHT22;7103;54.300;10.180;2023-09-12T00:13:47;19.80;75.50
14057;DHT22;7103;54.300;10.180;2023-09-12T00:16:14;19.80;73.30
14057;DHT22;7103;54.300;10.180;2023-09-12T00:18:41;19.80;68.70
14057;DHT22;7103;54.300;10.180;2023-09-12T00:21:09;19.90;67.10
14057;DHT22;7103;54.300;10.180;2023-09-12T00:23:36;19.80;87.20
14057;DHT22;7103;54.300;10.180;2023-09-12T00:26:03;19.80;80.40
14057;DHT22;7103;54.300;10.180;2023-09-12T00:28:30;19.80;92.90
14057;DHT22;7103;54.300;10.180;2023-09-12T00:30:57;19.80;98.40
14057;DHT22;7103;54.300;10.180;2023-09-12T00:33:24;19.80;96.40
14057;DHT22;7103;54.300;10.180;2023-09-12T00:35:51;19.80;99.90
14057;DHT22;7103;54.300;10.180;2023-09-12T00:38:18;19.90;98.90
14057;DHT22;7103;54.300;10.180;2023-09-12T00:40:45;19.90;94.20
14057;DHT22;7103;54.300;10.180;2023-09-12T00:43:12;19.90;92.30
14057;DHT22;7103;54.300;10.180;2023-09-12T00:45:39;19.90;87.30
14057;DHT22;7103;54.300;10.180;2023-09-12T00:48:07;19.80;87.20
14057;DHT22;7103;54.300;10.180;2023-09-12T00:50:36;19.90;99.90
14057;DHT22;7103;54.300;10.180;2023-09-12T00:53:03;19.80;98.40
14057;DHT22;7103;54.300;10.180;2023-09-12T00:55:32;19.90;98.80
14057;DHT22;7103;54.300;10.180;2023-09-12T00:58:01;19.80;87.20
14057;DHT22;7103;54.300;10.180;2023-09-12T01:00:29;19.90;94.80
14057;DHT22;7103;54.300;10.180;2023-09-12T01:02:56;19.80;99.20
14057;DHT22;7103;54.300;10.180;2023-09-12T01:05:23;19.80;97.40
14057;DHT22;7103;54.300;10.180;2023-09-12T01:07:50;19.90;96.20
14057;DHT22;7103;54.300;10.180;2023-09-12T01:16:09;19.80;99.90
14057;DHT22;7103;54.300;10.180;2023-09-12T01:18:36;19.70;99.90
14057;DHT22;7103;54.300;10.180;2023-09-12T01:27:37;19.70;99.90
14057;DHT22;7103;54.300;10.180;2023-09-12T01:30:06;19.70;99.90
14057;DHT22;7103;54.300;10.180;2023-09-12T01:32:35;19.70;99.90
14057;DHT22;7103;54.300;10.180;2023-09-12T01:35:02;19.70;99.90
14057;DHT22;7103;54.300;10.180;2023-09-12T01:37:32;19.80;99.90
14057;DHT22;7103;54.300;10.180;2023-09-12T01:40:00;19.80;99.90
14057;DHT22;7103;54.300;10.180;2023-09-12T01:42:40;19.80;99.90
14057;DHT22;7103;54.300;10.180;2023-09-12T01:45:15;19.70;99.90
14057;DHT22;7103;54.300;10.180;2023-09-12T01:47:45;19.70;99.90
14057;DHT22;7103;54.300;10.180;2023-09-12T01:50:12;19.70;99.90
14057;DHT22;7103;54.300;10.180;2023-09-12T01:52:41;19.70;99.90
14057;DHT22;7103;54.300;10.180;2023-09-12T01:55:09;19.70;99.90
14057;DHT22;7103;54.300;10.180;2023-09-12T01:57:37;19.70;99.90
14057;DHT22;7103;54.300;10.180;2023-09-12T02:00:05;19.70;99.90
14057;DHT22;7103;54.300;10.180;2023-09-12T02:02:32;19.80;99.90
14057;DHT22;7103;54.300;10.180;2023-09-12T02:05:15;19.80;99.90
14057;DHT22;7103;54.300;10.180;2023-09-12T02:07:45;19.80;99.90
14057;DHT22;7103;54.300;10.180;2023-09-12T02:10:13;20.00;99.90
14057;DHT22;7103;54.300;10.180;2023-09-12T02:12:40;20.00;99.90
14057;DHT22;7103;54.300;10.180;2023-09-12T02:15:08;20.00;99.90
14057;DHT22;7103;54.300;10.180;2023-09-12T02:17:35;19.90;99.90
14057;DHT22;7103;54.300;10.180;2023-09-12T02:20:03;19.90;99.90
14057;DHT22;7103;54.300;10.180;2023-09-12T02:22:32;19.80;99.90
14057;DHT22;7103;54.300;10.180;2023-09-12T02:24:59;19.80;99.90
14057;DHT22;7103;54.300;10.180;2023-09-12T02:27:26;19.80;99.90
14057;DHT22;7103;54.300;10.180;2023-09-12T02:29:53;19.70;99.90
14057;DHT22;7103;54.300;10.180;2023-09-12T02:32:20;19.80;99.90
14057;DHT22;7103;54.300;10.180;2023-09-12T02:34:47;19.80;99.90
14057;DHT22;7103;54.300;10.180;2023-09-12T02:37:14;19.70;99.90
14057;DHT22;7103;54.300;10.180;2023-09-12T02:39:42;19.70;99.90
14057;DHT22;7103;54.300;10.180;2023-09-12T02:42:09;19.70;99.90
14057;DHT22;7103;54.300;10.180;2023-09-12T02:44:36;19.70;99.90
14057;DHT22;7103;54.300;10.180;2023-09-12T02:47:04;19.70;1.00
14057;DHT22;7103;54.300;10.180;2023-09-12T02:49:32;19.60;1.00
14057;DHT22;7103;54.300;10.180;2023-09-12T02:51:59;19.70;1.00
14057;DHT22;7103;54.300;10.180;2023-09-12T02:54:26;19.70;1.00
14057;DHT22;7103;54.300;10.180;2023-09-12T02:56:53;19.60;1.00
14057;DHT22;7103;54.300;10.180;2023-09-12T02:59:20;19.70;1.00
14057;DHT22;7103;54.300;10.180;2023-09-12T03:01:47;19.70;1.00
14057;DHT22;7103;54.300;10.180;2023-09-12T03:04:14;19.70;1.00
14057;DHT22;7103;54.300;10.180;2023-09-12T03:06:41;19.70;1.00
14057;DHT22;7103;54.300;10.180;2023-09-12T03:09:08;19.70;1.00
14057;DHT22;7103;54.300;10.180;2023-09-12T03:11:35;19.60;1.00
14057;DHT22;7103;54.300;10.180;2023-09-12T03:14:02;19.70;1.00
14057;DHT22;7103;54.300;10.180;2023-09-12T03:16:29;19.70;1.00
14057;DHT22;7103;54.300;10.180;2023-09-12T03:18:56;19.70;1.00
14057;DHT22;7103;54.300;10.180;2023-09-12T03:21:23;19.70;1.00
14057;DHT22;7103;54.300;10.180;2023-09-12T03:23:50;19.70;99.90
14057;DHT22;7103;54.300;10.180;2023-09-12T03:26:17;19.60;99.90
14057;DHT22;7103;54.300;10.180;2023-09-12T03:28:44;19.60;99.90
14057;DHT22;7103;54.300;10.180;2023-09-12T03:31:13;19.60;99.90
14057;DHT22;7103;54.300;10.180;2023-09-12T03:33:41;19.60;99.90
14057;DHT22;7103;54.300;10.180;2023-09-12T03:36:09;19.50;99.90
14057;DHT22;7103;54.300;10.180;2023-09-12T03:38:36;19.50;99.90
14057;DHT22;7103;54.300;10.180;2023-09-12T03:41:03;19.50;99.90
14057;DHT22;7103;54.300;10.180;2023-09-12T03:43:32;19.50;99.90
14057;DHT22;7103;54.300;10.180;2023-09-12T03:45:59;19.50;99.90
14057;DHT22;7103;54.300;10.180;2023-09-12T03:48:26;19.50;99.90
14057;DHT22;7103;54.300;10.180;2023-09-12T03:50:53;19.50;99.90
14057;DHT22;7103;54.300;10.180;2023-09-12T03:53:20;19.40;99.90
14057;DHT22;7103;54.300;10.180;2023-09-12T03:55:47;19.50;1.00
14057;DHT22;7103;54.300;10.180;2023-09-12T03:58:14;19.50;1.00
14057;DHT22;7103;54.300;10.180;2023-09-12T04:00:41;19.50;99.90
14057;DHT22;7103;54.300;10.180;2023-09-12T04:03:08;19.50;99.90
14057;DHT22;7103;54.300;10.180;2023-09-12T04:05:35;19.40;99.90
14057;DHT22;7103;54.300;10.180;2023-09-12T04:08:02;19.40;99.90
14057;DHT22;7103;54.300;10.180;2023-09-12T04:10:29;19.50;99.90
14057;DHT22;7103;54.300;10.180;2023-09-12T04:12:56;19.50;99.90
14057;DHT22;7103;54.300;10.180;2023-09-12T04:15:23;19.40;99.90
14057;DHT22;7103;54.300;10.180;2023-09-12T04:17:50;19.40;99.90
14057;DHT22;7103;54.300;10.180;2023-09-12T04:20:18;19.50;99.90
14057;DHT22;7103;54.300;10.180;2023-09-12T04:22:45;19.50;99.90
14057;DHT22;7103;54.300;10.180;2023-09-12T04:25:11;19.50;99.90
14057;DHT22;7103;54.300;10.180;2023-09-12T04:27:39;19.50;99.90
14057;DHT22;7103;54.300;10.180;2023-09-12T04:30:06;19.40;99.90
14057;DHT22;7103;54.300;10.180;2023-09-12T04:32:34;19.40;99.90
14057;DHT22;7103;54.300;10.180;2023-09-12T04:35:01;19.30;99.90
14057;DHT22;7103;54.300;10.180;2023-09-12T04:37:28;19.30;1.00
14057;DHT22;7103;54.300;10.180;2023-09-12T04:39:55;19.20;1.00
14057;DHT22;7103;54.300;10.180;2023-09-12T04:42:23;19.20;1.00
14057;DHT22;7103;54.300;10.180;2023-09-12T04:44:50;19.20;1.00
14057;DHT22;7103;54.300;10.180;2023-09-12T04:47:16;19.10;1.00
14057;DHT22;7103;54.300;10.180;2023-09-12T04:49:44;19.10;1.00
14057;DHT22;7103;54.300;10.180;2023-09-12T04:52:11;19.10;1.00
14057;DHT22;7103;54.300;10.180;2023-09-12T04:54:38;19.10;1.00
14057;DHT22;7103;54.300;10.180;2023-09-12T04:57:05;19.20;1.00
14057;DHT22;7103;54.300;10.180;2023-09-12T04:59:32;19.20;1.00
14057;DHT22;7103;54.300;10.180;2023-09-12T05:01:59;19.30;1.00
14057;DHT22;7103;54.300;10.180;2023-09-12T05:04:26;19.40;1.00
14057;DHT22;7103;54.300;10.180;2023-09-12T05:06:53;19.40;1.00
14057;DHT22;7103;54.300;10.180;2023-09-12T05:09:20;19.40;1.00
14057;DHT22;7103;54.300;10.180;2023-09-12T05:11:47;19.50;1.00
14057;DHT22;7103;54.300;10.180;2023-09-12T05:14:14;19.50;1.00
14057;DHT22;7103;54.300;10.180;2023-09-12T05:16:41;19.60;1.00
14057;DHT22;7103;54.300;10.180;2023-09-12T05:19:08;19.50;99.90
14057;DHT22;7103;54.300;10.180;2023-09-12T05:21:35;19.50;1.00
14057;DHT22;7103;54.300;10.180;2023-09-12T05:24:03;19.50;1.00
14057;DHT22;7103;54.300;10.180;2023-09-12T05:26:30;19.40;1.00
14057;DHT22;7103;54.300;10.180;2023-09-12T05:28:56;19.40;1.00
14057;DHT22;7103;54.300;10.180;2023-09-12T05:31:23;19.40;1.00
14057;DHT22;7103;54.300;10.180;2023-09-12T05:33:51;19.40;1.00
14057;DHT22;7103;54.300;10.180;2023-09-12T05:36:18;19.40;1.00
14057;DHT22;7103;54.300;10.180;2023-09-12T05:38:45;19.50;1.00
14057;DHT22;7103;54.300;10.180;2023-09-12T05:41:12;19.50;1.00
14057;DHT22;7103;54.300;10.180;2023-09-12T05:43:39;19.50;99.90
14057;DHT22;7103;54.300;10.180;2023-09-12T05:46:05;19.50;99.90
14057;DHT22;7103;54.300;10.180;2023-09-12T05:48:33;19.60;99.90
14057;DHT22;7103;54.300;10.180;2023-09-12T05:51:00;19.60;99.90
14057;DHT22;7103;54.300;10.180;2023-09-12T05:53:27;19.60;99.90
14057;DHT22;7103;54.300;10.180;2023-09-12T05:55:54;19.60;99.90
14057;DHT22;7103;54.300;10.180;2023-09-12T05:58:21;19.60;99.90
14057;DHT22;7103;54.300;10.180;2023-09-12T06:00:48;19.60;99.90
14057;DHT22;7103;54.300;10.180;2023-09-12T06:03:15;19.50;99.90
14057;DHT22;7103;54.300;10.180;2023-09-12T06:05:43;19.50;99.90
14057;DHT22;7103;54.300;10.180;2023-09-12T06:08:10;19.50;99.90
14057;DHT22;7103;54.300;10.180;2023-09-12T06:10:37;19.60;99.90
14057;DHT22;7103;54.300;10.180;2023-09-12T06:13:04;19.60;99.90
14057;DHT22;7103;54.300;10.180;2023-09-12T06:15:31;19.70;99.90
14057;DHT22;7103;54.300;10.180;2023-09-12T06:17:58;19.70;99.90
14057;DHT22;7103;54.300;10.180;2023-09-12T06:20:25;19.80;99.90
14057;DHT22;7103;54.300;10.180;2023-09-12T06:22:52;19.80;99.90
14057;DHT22;7103;54.300;10.180;2023-09-12T06:25:19;19.80;99.90
14057;DHT22;7103;54.300;10.180;2023-09-12T06:27:46;19.80;99.90
14057;DHT22;7103;54.300;10.180;2023-09-12T06:30:14;19.90;99.90
14057;DHT22;7103;54.300;10.180;2023-09-12T06:32:41;19.90;99.90
14057;DHT22;7103;54.300;10.180;2023-09-12T06:35:08;20.00;99.90
14057;DHT22;7103;54.300;10.180;2023-09-12T06:37:38;19.90;99.90
14057;DHT22;7103;54.300;10.180;2023-09-12T06:40:07;19.90;99.90
14057;DHT22;7103;54.300;10.180;2023-09-12T06:42:34;20.00;99.90
14057;DHT22;7103;54.300;10.180;2023-09-12T06:45:01;20.00;99.90
14057;DHT22;7103;54.300;10.180;2023-09-12T06:47:28;20.10;99.90
14057;DHT22;7103;54.300;10.180;2023-09-12T06:49:55;20.20;99.90
14057;DHT22;7103;54.300;10.180;2023-09-12T06:52:22;20.30;99.90
14057;DHT22;7103;54.300;10.180;2023-09-12T06:54:50;20.40;99.90
14057;DHT22;7103;54.300;10.180;2023-09-12T06:57:17;20.60;99.90
14057;DHT22;7103;54.300;10.180;2023-09-12T06:59:44;20.60;99.90
14057;DHT22;7103;54.300;10.180;2023-09-12T07:02:11;20.70;99.90
14057;DHT22;7103;54.300;10.180;2023-09-12T07:04:39;20.80;99.90
14057;DHT22;7103;54.300;10.180;2023-09-12T07:07:06;20.90;99.90
14057;DHT22;7103;54.300;10.180;2023-09-12T07:09:33;20.90;99.90
14057;DHT22;7103;54.300;10.180;2023-09-12T07:12:00;20.90;99.90
14057;DHT22;7103;54.300;10.180;2023-09-12T07:14:27;20.90;99.90
14057;DHT22;7103;54.300;10.180;2023-09-12T07:16:56;20.90;99.90
14057;DHT22;7103;54.300;10.180;2023-09-12T07:19:23;20.90;99.90
14057;DHT22;7103;54.300;10.180;2023-09-12T07:21:51;20.90;99.90
14057;DHT22;7103;54.300;10.180;2023-09-12T07:24:18;20.90;99.90
14057;DHT22;7103;54.300;10.180;2023-09-12T07:26:45;20.90;99.90
14057;DHT22;7103;54.300;10.180;2023-09-12T07:29:13;20.90;99.90
14057;DHT22;7103;54.300;10.180;2023-09-12T07:31:40;20.90;99.90
14057;DHT22;7103;54.300;10.180;2023-09-12T07:34:07;20.80;99.90
14057;DHT22;7103;54.300;10.180;2023-09-12T07:36:35;20.70;99.90
14057;DHT22;7103;54.300;10.180;2023-09-12T07:39:03;20.80;99.90
14057;DHT22;7103;54.300;10.180;2023-09-12T07:41:31;20.80;99.90
14057;DHT22;7103;54.300;10.180;2023-09-12T07:43:58;20.90;99.90
14057;DHT22;7103;54.300;10.180;2023-09-12T07:46:26;21.00;99.90
14057;DHT22;7103;54.300;10.180;2023-09-12T07:48:54;21.10;99.90
14057;DHT22;7103;54.300;10.180;2023-09-12T07:51:23;21.30;99.90
14057;DHT22;7103;54.300;10.180;2023-09-12T07:53:51;21.50;93.50
14057;DHT22;7103;54.300;10.180;2023-09-12T07:56:18;21.60;79.30
14057;DHT22;7103;54.300;10.180;2023-09-12T07:58:46;21.70;22.20
14057;DHT22;7103;54.300;10.180;2023-09-12T08:01:13;21.90;4.50
14057;DHT22;7103;54.300;10.180;2023-09-12T08:03:42;21.70;1.00
14057;DHT22;7103;54.300;10.180;2023-09-12T08:06:10;21.90;1.00
14057;DHT22;7103;54.300;10.180;2023-09-12T08:08:37;21.90;1.00
14057;DHT22;7103;54.300;10.180;2023-09-12T08:11:05;21.90;1.00
14057;DHT22;7103;54.300;10.180;2023-09-12T08:13:32;22.00;1.00
14057;DHT22;7103;54.300;10.180;2023-09-12T08:15:59;22.00;1.00
14057;DHT22;7103;54.300;10.180;2023-09-12T08:18:29;22.20;1.00
14057;DHT22;7103;54.300;10.180;2023-09-12T08:20:57;22.40;1.00
14057;DHT22;7103;54.300;10.180;2023-09-12T08:23:25;22.80;1.00
14057;DHT22;7103;54.300;10.180;2023-09-12T08:25:52;23.00;1.00
14057;DHT22;7103;54.300;10.180;2023-09-12T08:28:22;23.10;1.00
14057;DHT22;7103;54.300;10.180;2023-09-12T08:30:50;23.20;1.00
14057;DHT22;7103;54.300;10.180;2023-09-12T08:33:18;23.00;1.00
14057;DHT22;7103;54.300;10.180;2023-09-12T08:35:45;23.10;1.00
14057;DHT22;7103;54.300;10.180;2023-09-12T08:38:15;23.20;1.00
14057;DHT22;7103;54.300;10.180;2023-09-12T08:40:50;23.20;1.00
14057;DHT22;7103;54.300;10.180;2023-09-12T08:43:17;23.30;1.00
14057;DHT22;7103;54.300;10.180;2023-09-12T08:45:45;23.70;1.00
14057;DHT22;7103;54.300;10.180;2023-09-12T08:48:13;24.10;1.00
14057;DHT22;7103;54.300;10.180;2023-09-12T08:50:42;24.20;1.00
14057;DHT22;7103;54.300;10.180;2023-09-12T08:53:09;24.30;1.00
14057;DHT22;7103;54.300;10.180;2023-09-12T08:55:36;24.20;1.00
14057;DHT22;7103;54.300;10.180;2023-09-12T08:58:05;24.50;1.00
14057;DHT22;7103;54.300;10.180;2023-09-12T09:00:33;24.40;1.00
14057;DHT22;7103;54.300;10.180;2023-09-12T09:03:01;24.50;1.00
14057;DHT22;7103;54.300;10.180;2023-09-12T09:05:31;24.40;1.00
14057;DHT22;7103;54.300;10.180;2023-09-12T09:08:00;24.10;1.00
14057;DHT22;7103;54.300;10.180;2023-09-12T09:10:32;23.80;1.00
14057;DHT22;7103;54.300;10.180;2023-09-12T09:13:20;23.50;1.00
14057;DHT22;7103;54.300;10.180;2023-09-12T09:15:47;23.40;1.00
14057;DHT22;7103;54.300;10.180;2023-09-12T09:18:15;23.50;1.00
14057;DHT22;7103;54.300;10.180;2023-09-12T09:20:43;23.50;1.00
14057;DHT22;7103;54.300;10.180;2023-09-12T09:23:13;23.60;1.00
14057;DHT22;7103;54.300;10.180;2023-09-12T09:25:42;23.60;1.00
14057;DHT22;7103;54.300;10.180;2023-09-12T09:28:17;23.60;1.00
14057;DHT22;7103;54.300;10.180;2023-09-12T09:30:46;23.70;1.00
14057;DHT22;7103;54.300;10.180;2023-09-12T09:33:16;23.60;1.00
14057;DHT22;7103;54.300;10.180;2023-09-12T09:35:46;23.80;1.00
14057;DHT22;7103;54.300;10.180;2023-09-12T09:38:13;23.80;1.00
14057;DHT22;7103;54.300;10.180;2023-09-12T09:40:45;24.30;1.00
14057;DHT22;7103;54.300;10.180;2023-09-12T09:43:20;24.70;1.00
14057;DHT22;7103;54.300;10.180;2023-09-12T09:45:48;24.80;1.00
14057;DHT22;7103;54.300;10.180;2023-09-12T09:48:23;24.80;1.00
14057;DHT22;7103;54.300;10.180;2023-09-12T09:50:51;24.60;1.00
14057;DHT22;7103;54.300;10.180;2023-09-12T09:53:26;24.50;1.00
14057;DHT22;7103;54.300;10.180;2023-09-12T09:58:34;24.20;1.00
14057;DHT22;7103;54.300;10.180;2023-09-12T10:01:01;24.30;1.00
14057;DHT22;7103;54.300;10.180;2023-09-12T10:03:33;24.20;1.00
14057;DHT22;7103;54.300;10.180;2023-09-12T10:06:04;24.10;1.00
14057;DHT22;7103;54.300;10.180;2023-09-12T10:08:32;24.20;1.00
14057;DHT22;7103;54.300;10.180;2023-09-12T10:11:02;24.10;1.00
14057;DHT22;7103;54.300;10.180;2023-09-12T10:13:32;24.20;1.00
14057;DHT22;7103;54.300;10.180;2023-09-12T10:16:01;24.30;1.00
14057;DHT22;7103;54.300;10.180;2023-09-12T10:18:43;24.70;1.00
14057;DHT22;7103;54.300;10.180;2023-09-12T10:21:16;24.90;1.00
14057;DHT22;7103;54.300;10.180;2023-09-12T10:23:45;24.80;1.00
14057;DHT22;7103;54.300;10.180;2023-09-12T10:26:14;25.00;1.00
14057;DHT22;7103;54.300;10.180;2023-09-12T10:28:42;25.00;1.00
14057;DHT22;7103;54.300;10.180;2023-09-12T10:31:12;24.90;1.00
14057;DHT22;7103;54.300;10.180;2023-09-12T10:33:40;24.80;1.00
14057;DHT22;7103;54.300;10.180;2023-09-12T10:36:09;24.70;1.00
14057;DHT22;7103;54.300;10.180;2023-09-12T10:38:41;24.70;1.00
14057;DHT22;7103;54.300;10.180;2023-09-12T10:41:14;24.70;1.00
14057;DHT22;7103;54.300;10.180;2023-09-12T10:43:44;24.60;1.00
14057;DHT22;7103;54.300;10.180;2023-09-12T10:46:16;24.60;1.00
14057;DHT22;7103;54.300;10.180;2023-09-12T10:48:44;24.60;1.00
14057;DHT22;7103;54.300;10.180;2023-09-12T10:51:13;24.50;1.00
14057;DHT22;7103;54.300;10.180;2023-09-12T10:53:50;24.40;1.00
14057;DHT22;7103;54.300;10.180;2023-09-12T10:56:21;24.20;1.00
14057;DHT22;7103;54.300;10.180;2023-09-12T11:01:33;24.40;1.00
14057;DHT22;7103;54.300;10.180;2023-09-12T11:06:54;24.70;1.00
14057;DHT22;7103;54.300;10.180;2023-09-12T11:09:23;24.90;1.00
14057;DHT22;7103;54.300;10.180;2023-09-12T11:11:58;25.30;1.00
14057;DHT22;7103;54.300;10.180;2023-09-12T11:14:29;25.40;1.00
14057;DHT22;7103;54.300;10.180;2023-09-12T11:19:46;25.50;1.00
14057;DHT22;7103;54.300;10.180;2023-09-12T11:22:28;25.50;1.00
14057;DHT22;7103;54.300;10.180;2023-09-12T11:25:01;25.40;1.00
14057;DHT22;7103;54.300;10.180;2023-09-12T11:27:46;25.70;1.00
14057;DHT22;7103;54.300;10.180;2023-09-12T11:30:28;25.90;1.00
14057;DHT22;7103;54.300;10.180;2023-09-12T11:32:58;26.00;1.00
14057;DHT22;7103;54.300;10.180;2023-09-12T11:35:29;26.10;1.00
14057;DHT22;7103;54.300;10.180;2023-09-12T11:37:59;26.40;1.00
14057;DHT22;7103;54.300;10.180;2023-09-12T11:43:01;26.30;1.00
14057;DHT22;7103;54.300;10.180;2023-09-12T11:45:29;26.10;99.90
14057;DHT22;7103;54.300;10.180;2023-09-12T11:47:57;26.10;1.00
14057;DHT22;7103;54.300;10.180;2023-09-12T11:50:34;26.10;1.00
14057;DHT22;7103;54.300;10.180;2023-09-12T11:53:04;26.00;1.00
14057;DHT22;7103;54.300;10.180;2023-09-12T11:58:13;25.70;1.00
14057;DHT22;7103;54.300;10.180;2023-09-12T12:00:44;25.80;1.00
14057;DHT22;7103;54.300;10.180;2023-09-12T12:03:14;25.50;1.00
14057;DHT22;7103;54.300;10.180;2023-09-12T12:05:42;25.20;1.00
14057;DHT22;7103;54.300;10.180;2023-09-12T12:08:10;25.10;1.00
14057;DHT22;7103;54.300;10.180;2023-09-12T12:10:57;24.90;1.00
14057;DHT22;7103;54.300;10.180;2023-09-12T12:13:33;24.80;1.00
14057;DHT22;7103;54.300;10.180;2023-09-12T12:16:00;24.90;1.00
14057;DHT22;7103;54.300;10.180;2023-09-12T12:18:27;24.90;1.00
14057;DHT22;7103;54.300;10.180;2023-09-12T12:20:55;24.90;1.00
14057;DHT22;7103;54.300;10.180;2023-09-12T12:23:22;24.80;1.00
14057;DHT22;7103;54.300;10.180;2023-09-12T12:25:49;24.70;1.00
14057;DHT22;7103;54.300;10.180;2023-09-12T12:28:17;24.80;1.00
14057;DHT22;7103;54.300;10.180;2023-09-12T12:30:44;24.80;1.00
14057;DHT22;7103;54.300;10.180;2023-09-12T12:33:14;24.90;1.00
14057;DHT22;7103;54.300;10.180;2023-09-12T12:36:05;24.80;1.00
14057;DHT22;7103;54.300;10.180;2023-09-12T12:38:38;24.90;1.00
14057;DHT22;7103;54.300;10.180;2023-09-12T12:41:27;24.90;1.00
14057;DHT22;7103;54.300;10.180;2023-09-12T12:44:09;24.90;1.00
14057;DHT22;7103;54.300;10.180;2023-09-12T12:46:51;24.80;1.00
14057;DHT22;7103;54.300;10.180;2023-09-12T12:49:20;24.70;1.00
14057;DHT22;7103;54.300;10.180;2023-09-12T12:51:48;24.80;1.00
14057;DHT22;7103;54.300;10.180;2023-09-12T12:54:16;24.90;1.00
14057;DHT22;7103;54.300;10.180;2023-09-12T12:56:44;24.90;1.00
14057;DHT22;7103;54.300;10.180;2023-09-12T12:59:14;24.80;1.00
14057;DHT22;7103;54.300;10.180;2023-09-12T13:01:44;24.90;1.00
14057;DHT22;7103;54.300;10.180;2023-09-12T13:04:11;24.80;1.00
14057;DHT22;7103;54.300;10.180;2023-09-12T13:06:39;24.90;1.00
14057;DHT22;7103;54.300;10.180;2023-09-12T13:09:07;24.80;1.00
14057;DHT22;7103;54.300;10.180;2023-09-12T13:11:36;24.80;1.00
14057;DHT22;7103;54.300;10.180;2023-09-12T13:14:04;24.70;1.00
14057;DHT22;7103;54.300;10.180;2023-09-12T13:16:37;24.60;1.00
14057;DHT22;7103;54.300;10.180;2023-09-12T13:19:06;24.60;1.00
14057;DHT22;7103;54.300;10.180;2023-09-12T13:21:33;24.50;1.00
14057;DHT22;7103;54.300;10.180;2023-09-12T13:24:00;24.50;1.00
14057;DHT22;7103;54.300;10.180;2023-09-12T13:26:29;24.50;1.00
14057;DHT22;7103;54.300;10.180;2023-09-12T13:28:56;24.50;1.00
14057;DHT22;7103;54.300;10.180;2023-09-12T13:31:24;24.70;1.00
14057;DHT22;7103;54.300;10.180;2023-09-12T13:33:52;25.00;1.00
14057;DHT22;7103;54.300;10.180;2023-09-12T13:36:19;25.10;1.00
14057;DHT22;7103;54.300;10.180;2023-09-12T13:38:46;25.40;1.00
14057;DHT22;7103;54.300;10.180;2023-09-12T13:41:15;25.50;1.00
14057;DHT22;7103;54.300;10.180;2023-09-12T13:43:42;25.60;1.00
14057;DHT22;7103;54.300;10.180;2023-09-12T13:46:12;25.40;1.00
14057;DHT22;7103;54.300;10.180;2023-09-12T13:48:40;25.30;1.00
14057;DHT22;7103;54.300;10.180;2023-09-12T13:51:07;25.10;1.00
14057;DHT22;7103;54.300;10.180;2023-09-12T13:53:34;25.10;1.00
14057;DHT22;7103;54.300;10.180;2023-09-12T13:56:02;25.10;1.00
14057;DHT22;7103;54.300;10.180;2023-09-12T13:58:29;25.30;1.00
14057;DHT22;7103;54.300;10.180;2023-09-12T14:01:13;25.40;1.00
14057;DHT22;7103;54.300;10.180;2023-09-12T14:03:56;25.60;1.00
14057;DHT22;7103;54.300;10.180;2023-09-12T14:06:24;25.70;1.00
14057;DHT22;7103;54.300;10.180;2023-09-12T14:08:53;25.80;1.00
14057;DHT22;7103;54.300;10.180;2023-09-12T14:11:20;25.70;1.00
14057;DHT22;7103;54.300;10.180;2023-09-12T14:13:58;25.60;1.00
14057;DHT22;7103;54.300;10.180;2023-09-12T14:16:41;25.50;1.00
14057;DHT22;7103;54.300;10.180;2023-09-12T14:19:14;25.30;1.00
14057;DHT22;7103;54.300;10.180;2023-09-12T14:21:42;25.20;1.00
14057;DHT22;7103;54.300;10.180;2023-09-12T14:24:12;25.00;1.00
14057;DHT22;7103;54.300;10.180;2023-09-12T14:26:40;25.00;1.00
14057;DHT22;7103;54.300;10.180;2023-09-12T14:29:08;24.80;1.00
14057;DHT22;7103;54.300;10.180;2023-09-12T14:31:35;24.80;1.00
14057;DHT22;7103;54.300;10.180;2023-09-12T14:34:04;24.70;1.00
14057;DHT22;7103;54.300;10.180;2023-09-12T14:36:33;24.60;1.00
14057;DHT22;7103;54.300;10.180;2023-09-12T14:39:00;24.70;1.00
14057;DHT22;7103;54.300;10.180;2023-09-12T14:41:28;24.90;1.00
14057;DHT22;7103;54.300;10.180;2023-09-12T14:43:55;25.00;1.00
14057;DHT22;7103;54.300;10.180;2023-09-12T14:46:22;25.10;1.00
14057;DHT22;7103;54.300;10.180;2023-09-12T14:48:53;25.30;1.00
14057;DHT22;7103;54.300;10.180;2023-09-12T14:51:29;25.10;1.00
14057;DHT22;7103;54.300;10.180;2023-09-12T14:54:00;25.10;1.00
14057;DHT22;7103;54.300;10.180;2023-09-12T14:56:27;25.00;1.00
14057;DHT22;7103;54.300;10.180;2023-09-12T14:58:54;24.90;1.00
14057;DHT22;7103;54.300;10.180;2023-09-12T15:01:22;24.90;1.00
14057;DHT22;7103;54.300;10.180;2023-09-12T15:03:52;24.90;1.00
14057;DHT22;7103;54.300;10.180;2023-09-12T15:06:20;24.80;1.00
14057;DHT22;7103;54.300;10.180;2023-09-12T15:08:49;24.70;1.00
14057;DHT22;7103;54.300;10.180;2023-09-12T15:11:17;24.50;1.00
14057;DHT22;7103;54.300;10.180;2023-09-12T15:13:44;24.50;1.00
14057;DHT22;7103;54.300;10.180;2023-09-12T15:16:14;24.40;1.00
14057;DHT22;7103;54.300;10.180;2023-09-12T15:18:45;24.20;1.00
14057;DHT22;7103;54.300;10.180;2023-09-12T15:21:13;24.20;1.00
14057;DHT22;7103;54.300;10.180;2023-09-12T15:23:40;24.20;1.00
14057;DHT22;7103;54.300;10.180;2023-09-12T15:26:08;24.10;1.00
14057;DHT22;7103;54.300;10.180;2023-09-12T15:28:35;24.10;1.00
14057;DHT22;7103;54.300;10.180;2023-09-12T15:31:02;24.20;1.00
14057;DHT22;7103;54.300;10.180;2023-09-12T15:33:30;24.40;1.00
14057;DHT22;7103;54.300;10.180;2023-09-12T15:35:58;24.50;1.00
14057;DHT22;7103;54.300;10.180;2023-09-12T15:38:25;24.50;1.00
14057;DHT22;7103;54.300;10.180;2023-09-12T15:40:54;24.40;1.00
14057;DHT22;7103;54.300;10.180;2023-09-12T15:43:25;24.40;1.00
14057;DHT22;7103;54.300;10.180;2023-09-12T15:45:52;24.40;1.00
14057;DHT22;7103;54.300;10.180;2023-09-12T15:48:19;24.40;1.00
14057;DHT22;7103;54.300;10.180;2023-09-12T15:50:47;24.30;1.00
14057;DHT22;7103;54.300;10.180;2023-09-12T15:53:15;24.20;1.00
14057;DHT22;7103;54.300;10.180;2023-09-12T15:55:42;24.00;1.00
14057;DHT22;7103;54.300;10.180;2023-09-12T15:58:09;23.90;1.00
14057;DHT22;7103;54.300;10.180;2023-09-12T16:00:37;23.80;1.00
14057;DHT22;7103;54.300;10.180;2023-09-12T16:03:11;23.80;1.00
14057;DHT22;7103;54.300;10.180;2023-09-12T16:05:39;23.70;1.00
14057;DHT22;7103;54.300;10.180;2023-09-12T16:08:06;23.70;1.00
14057;DHT22;7103;54.300;10.180;2023-09-12T16:10:33;23.60;1.00
14057;DHT22;7103;54.300;10.180;2023-09-12T16:13:00;23.50;1.00
14057;DHT22;7103;54.300;10.180;2023-09-12T16:15:27;23.40;1.00
14057;DHT22;7103;54.300;10.180;2023-09-12T16:17:58;23.30;1.00